MTS Valour — MPVV8 — position and weather

sailwx.info

Track history (hours):
 
Tides and Currents Weather Stations Pressure Air Temp Water Temp Dewpoint Dewpoint Depression Visibility Wind Speed Wind Dir Waves Ship Positions

MTS Valour

Last reported at 2016-Aug-26 04:34 UTC. Time now 2016-Aug-26 06:49 UTC.
Position N 51°20' E 001°25'.

Length 24 m; draft 2.4 m.

Type: Tug. MMSI: 235040596.

Date/timePositionNaut miles runAvg speedWind from/ knotsBaromVisibWave heightAir tempDewpointWater temp
2016-Aug-26 04:34N 51°20' E 001°25'0 0.0
2016-Aug-26 03:31N 51°20' E 001°25'0 0.0
2016-Aug-26 02:31N 51°20' E 001°25'0 0.0
2016-Aug-26 01:34N 51°20' E 001°25'0 0.0
2016-Aug-26 00:31N 51°20' E 001°25'0 0.0
2016-Aug-25 23:34N 51°20' E 001°25'0 0.0
2016-Aug-25 22:31N 51°20' E 001°25'0 0.0
2016-Aug-25 21:34N 51°20' E 001°25'0 0.0
2016-Aug-25 20:34N 51°20' E 001°25'0 0.0
2016-Aug-25 19:31N 51°20' E 001°25'0 0.0
2016-Aug-25 18:31N 51°20' E 001°25'0 0.0
2016-Aug-25 17:31N 51°20' E 001°25'0 0.0
2016-Aug-25 16:34N 51°20' E 001°25'0 0.0
2016-Aug-25 15:34N 51°20' E 001°25'0 0.0
2016-Aug-25 14:31N 51°20' E 001°25'0 0.0
2016-Aug-25 13:31N 51°20' E 001°25'0 0.0
2016-Aug-25 12:34N 51°20' E 001°25'0 0.0
2016-Aug-25 11:31N 51°20' E 001°25'0 0.0
2016-Aug-25 10:31N 51°20' E 001°25'0 0.0
2016-Aug-25 09:34N 51°20' E 001°25'0 0.0
2016-Aug-25 08:33N 51°20' E 001°25'0 0.0
2016-Aug-25 07:33N 51°20' E 001°25'0 0.0
2016-Aug-25 06:33N 51°20' E 001°25'14 7.2
2016-Aug-25 04:33N 51°12' E 001°45'1010.2
2016-Aug-25 03:33N 51°04' E 001°36'1110.3
2016-Aug-25 02:31N 50°55' E 001°26'10 9.0
2016-Aug-25 01:24N 50°46' E 001°21'11 8.4
2016-Aug-25 00:06N 50°38' E 001°10'37 7.8
2016-Aug-24 19:26N 50°25' E 000°16'7 7.5
2016-Aug-24 18:33N 50°23' E 000°06'8 7.8
2016-Aug-24 17:33N 50°24' W 000°06'9 9.4
2016-Aug-24 16:33N 50°30' W 000°17'10 9.7
2016-Aug-24 15:33N 50°37' W 000°29'9 9.3
2016-Aug-24 14:33N 50°42' W 000°41'4 3.8
2016-Aug-24 13:29N 50°44' W 000°47'0 0.0
2016-Aug-24 12:32N 50°44' W 000°47'0 0.1
2016-Aug-24 11:33N 50°44' W 000°47'0 0.1
2016-Aug-24 10:33N 50°44' W 000°47'0 0.0
2016-Aug-24 09:33N 50°44' W 000°47'0 0.0
2016-Aug-24 08:33N 50°44' W 000°47'0 0.0
2016-Aug-24 07:31N 50°44' W 000°47'0 0.0
2016-Aug-24 06:31N 50°44' W 000°47'0 0.0
2016-Aug-24 04:31N 50°44' W 000°47'0 0.0
2016-Aug-24 03:31N 50°44' W 000°47'0 0.0
2016-Aug-24 02:31N 50°44' W 000°47'0 0.0
2016-Aug-24 01:31N 50°44' W 000°47'0 0.0
2016-Aug-24 00:31N 50°44' W 000°47'0 0.0
2016-Aug-23 23:31N 50°44' W 000°47'0 0.0
2016-Aug-23 22:31N 50°44' W 000°47'0 0.0
2016-Aug-23 21:31N 50°44' W 000°47'0 0.0
2016-Aug-23 20:31N 50°44' W 000°47'0 0.0
2016-Aug-23 19:33N 50°44' W 000°47'0 0.0
2016-Aug-23 18:33N 50°44' W 000°47'0 0.0
2016-Aug-23 17:33N 50°44' W 000°47'0 0.0
2016-Aug-23 16:33N 50°44' W 000°47'0 0.0
2016-Aug-23 15:34N 50°44' W 000°47'0 0.0
2016-Aug-23 14:33N 50°44' W 000°47'0 0.0
2016-Aug-23 13:33N 50°44' W 000°47'0 0.1
2016-Aug-23 12:33N 50°44' W 000°47'0 0.1
2016-Aug-23 11:33N 50°44' W 000°47'0 0.1
2016-Aug-23 10:34N 50°44' W 000°47'0 0.1
2016-Aug-23 09:33N 50°44' W 000°47'0 0.0
2016-Aug-23 08:33N 50°44' W 000°47'0 0.0
2016-Aug-23 07:34N 50°44' W 000°47'0 0.0
2016-Aug-23 06:33N 50°44' W 000°47'0 0.0
2016-Aug-23 05:31N 50°44' W 000°47'0 0.0
2016-Aug-23 04:31N 50°44' W 000°47'0 0.0
2016-Aug-23 03:31N 50°44' W 000°47'0 0.0
2016-Aug-23 02:31N 50°44' W 000°47'0 0.0
2016-Aug-23 01:31N 50°44' W 000°47'0 0.0
2016-Aug-23 00:31N 50°44' W 000°47'0 0.0
2016-Aug-22 23:31N 50°44' W 000°47'0 0.0
2016-Aug-22 22:31N 50°44' W 000°47'0 0.0
2016-Aug-22 21:31N 50°44' W 000°47'0 0.0
2016-Aug-22 20:31N 50°44' W 000°47'0 0.0
2016-Aug-22 19:31N 50°44' W 000°47'0 0.0
2016-Aug-22 18:31N 50°44' W 000°47'0 0.0
2016-Aug-22 17:31N 50°44' W 000°47'0 0.0
2016-Aug-22 16:31N 50°44' W 000°47'0 0.0
2016-Aug-22 15:33N 50°44' W 000°47'0 0.0
2016-Aug-22 14:34N 50°44' W 000°47'0 0.0
2016-Aug-22 13:33N 50°44' W 000°47'0 0.0
2016-Aug-22 12:33N 50°44' W 000°47'0 0.0
2016-Aug-22 11:33N 50°44' W 000°47'0 0.1
2016-Aug-22 10:33N 50°44' W 000°47'1 0.6
2016-Aug-22 09:33N 50°44' W 000°46'0 0.4
2016-Aug-22 08:33N 50°43' W 000°46'0 0.3
2016-Aug-22 07:33N 50°44' W 000°46'6 5.9
2016-Aug-22 06:33N 50°42' W 000°37'8 8.4
2016-Aug-22 05:33N 50°38' W 000°25'9 8.9
2016-Aug-22 04:33N 50°34' W 000°12'9 8.7
2016-Aug-22 03:33N 50°32' E 000°01'8 8.1
2016-Aug-22 02:33N 50°34' E 000°13'47 6.7
2016-Aug-21 19:33N 51°01' E 001°15'9 8.7
2016-Aug-21 18:33N 51°07' E 001°24'8 8.4
2016-Aug-21 17:33N 51°15' E 001°27'4 4.4
2016-Aug-21 16:33N 51°20' E 001°25'0 0.0
2016-Aug-21 15:31N 51°20' E 001°25'0 0.0
2016-Aug-21 14:33N 51°20' E 001°25'0 0.0
2016-Aug-21 13:33N 51°20' E 001°25'0 0.0
2016-Aug-21 12:33N 51°20' E 001°25'0 0.0
2016-Aug-21 11:33N 51°20' E 001°25'0 0.0
2016-Aug-21 10:33N 51°20' E 001°25'0 0.0
2016-Aug-21 09:33N 51°20' E 001°25'0 0.0
2016-Aug-21 08:33N 51°20' E 001°25'0 0.0
2016-Aug-21 07:33N 51°20' E 001°25'0 0.0
2016-Aug-21 06:33N 51°20' E 001°25'0 0.0
2016-Aug-21 05:33N 51°20' E 001°25'0 0.0
2016-Aug-21 04:33N 51°20' E 001°25'0 0.0
2016-Aug-21 03:34N 51°20' E 001°25'0 0.0
2016-Aug-21 02:33N 51°20' E 001°25'0 0.0
2016-Aug-21 01:34N 51°20' E 001°25'0 0.0
2016-Aug-21 00:33N 51°20' E 001°25'0 0.0
2016-Aug-20 23:33N 51°20' E 001°25'0 0.0
2016-Aug-20 22:33N 51°20' E 001°25'0 0.0
2016-Aug-20 21:33N 51°20' E 001°25'0 0.0
2016-Aug-20 20:33N 51°20' E 001°25'0 0.0
2016-Aug-20 19:33N 51°20' E 001°25'0 0.0
2016-Aug-20 18:33N 51°20' E 001°25'0 0.0
2016-Aug-20 17:33N 51°20' E 001°25'0 0.0
2016-Aug-20 16:33N 51°20' E 001°25'0 0.0
2016-Aug-20 15:33N 51°20' E 001°25'0 0.0
2016-Aug-20 14:33N 51°20' E 001°25'0 0.0
2016-Aug-20 13:33N 51°20' E 001°25'0 0.0
2016-Aug-20 12:33N 51°20' E 001°25'0 0.0
2016-Aug-20 11:33N 51°20' E 001°25'0 0.0
2016-Aug-20 10:34N 51°20' E 001°25'0 0.0
2016-Aug-20 09:33N 51°20' E 001°25'0 0.0
2016-Aug-20 08:33N 51°20' E 001°25'0 0.0
2016-Aug-20 07:34N 51°20' E 001°25'0 0.0
2016-Aug-20 06:33N 51°20' E 001°25'0 0.0
2016-Aug-20 05:33N 51°20' E 001°25'0 0.0
2016-Aug-20 04:33N 51°20' E 001°25'0 0.0
2016-Aug-20 03:33N 51°20' E 001°25'0 0.0
2016-Aug-20 02:33N 51°20' E 001°25'0 0.0
2016-Aug-20 01:33N 51°20' E 001°25'0 0.0
2016-Aug-20 00:33N 51°20' E 001°25'0 0.0
2016-Aug-19 23:33N 51°20' E 001°25'0 0.0
2016-Aug-19 22:33N 51°20' E 001°25'0 0.3
2016-Aug-19 21:34N 51°20' E 001°25'1 0.6
2016-Aug-19 20:33N 51°20' E 001°26'1 0.7
2016-Aug-19 19:33N 51°20' E 001°25'0 0.0
2016-Aug-19 18:33N 51°20' E 001°25'0 0.0
2016-Aug-19 17:33N 51°20' E 001°25'0 0.0
2016-Aug-19 16:33N 51°20' E 001°25'0 0.0
2016-Aug-19 15:33N 51°20' E 001°25'0 0.4
2016-Aug-19 14:31N 51°20' E 001°25'0 0.0
2016-Aug-19 13:31N 51°20' E 001°25'0 0.0
2016-Aug-19 12:31N 51°20' E 001°25'0 0.0
2016-Aug-19 11:31N 51°20' E 001°25'0 0.0
2016-Aug-19 10:31N 51°20' E 001°25'0 0.0
2016-Aug-19 09:31N 51°20' E 001°25'0 0.0
2016-Aug-19 08:31N 51°20' E 001°25'0 0.0
2016-Aug-19 07:31N 51°20' E 001°25'0 0.0
2016-Aug-19 06:31N 51°20' E 001°25'0 0.0
2016-Aug-19 05:31N 51°20' E 001°25'0 0.0
2016-Aug-19 04:31N 51°20' E 001°25'0 0.0
2016-Aug-19 03:31N 51°20' E 001°25'0 0.0
2016-Aug-19 02:31N 51°20' E 001°25'0 0.0
2016-Aug-19 01:31N 51°20' E 001°25'0 0.0
2016-Aug-19 00:31N 51°20' E 001°25'0 0.0
2016-Aug-18 23:31N 51°20' E 001°25'0 0.0
2016-Aug-18 22:31N 51°20' E 001°25'0 0.0
2016-Aug-18 21:31N 51°20' E 001°25'0 0.0
2016-Aug-18 20:31N 51°20' E 001°25'0 0.0
2016-Aug-18 19:31N 51°20' E 001°25'0 0.0
2016-Aug-18 18:31N 51°20' E 001°25'0 0.0
2016-Aug-18 17:31N 51°20' E 001°25'0 0.0
2016-Aug-18 16:31N 51°20' E 001°25'0 0.0
2016-Aug-18 15:31N 51°20' E 001°25'0 0.0
2016-Aug-18 14:31N 51°20' E 001°25'0 0.0
2016-Aug-18 13:31N 51°20' E 001°25'0 0.0
2016-Aug-18 12:31N 51°20' E 001°25'0 0.0
2016-Aug-18 11:28N 51°20' E 001°25'0 0.0
2016-Aug-18 10:31N 51°20' E 001°25'0 0.0
2016-Aug-18 09:31N 51°20' E 001°25'0 0.0
2016-Aug-18 08:28N 51°20' E 001°25'0 0.0
2016-Aug-18 07:31N 51°20' E 001°25'0 0.0
2016-Aug-18 06:31N 51°20' E 001°25'0 0.0
2016-Aug-18 05:31N 51°20' E 001°25'0 0.0
2016-Aug-18 04:31N 51°20' E 001°25'0 0.0
2016-Aug-18 03:31N 51°20' E 001°25'0 0.0
2016-Aug-18 02:31N 51°20' E 001°25'0 0.0
2016-Aug-18 01:31N 51°20' E 001°25'0 0.0
2016-Aug-18 00:31N 51°20' E 001°25'0 0.0
2016-Aug-17 23:31N 51°20' E 001°25'0 0.0
2016-Aug-17 22:31N 51°20' E 001°25'0 0.0
2016-Aug-17 21:31N 51°20' E 001°25'0 0.0
2016-Aug-17 20:31N 51°20' E 001°25'0 0.0
2016-Aug-17 19:31N 51°20' E 001°25'0 0.0
2016-Aug-17 18:31N 51°20' E 001°25'0 0.0
2016-Aug-17 17:31N 51°20' E 001°25'0 0.0
2016-Aug-17 16:31N 51°20' E 001°25'0 0.0
2016-Aug-17 15:31N 51°20' E 001°25'0 0.0
2016-Aug-17 14:31N 51°20' E 001°25'0 0.0
2016-Aug-17 13:31N 51°20' E 001°25'0 0.0
2016-Aug-17 12:31N 51°20' E 001°25'0 0.0
2016-Aug-17 11:31N 51°20' E 001°25'0 0.0
2016-Aug-17 10:31N 51°20' E 001°25'0 0.0
2016-Aug-17 09:31N 51°20' E 001°25'0 0.0
2016-Aug-17 08:31N 51°20' E 001°25'0 0.0
2016-Aug-17 07:31N 51°20' E 001°25'0 0.0
2016-Aug-17 06:31N 51°20' E 001°25'0 0.0
2016-Aug-17 05:31N 51°20' E 001°25'0 0.0
2016-Aug-17 04:31N 51°20' E 001°25'0 0.0
2016-Aug-17 03:31N 51°20' E 001°25'0 0.0
2016-Aug-17 02:31N 51°20' E 001°25'0 0.0
2016-Aug-17 01:31N 51°20' E 001°25'0 0.0
2016-Aug-17 00:31N 51°20' E 001°25'0 0.0
2016-Aug-16 23:31N 51°20' E 001°25'0 0.0
2016-Aug-16 22:31N 51°20' E 001°25'0 0.0
2016-Aug-16 21:31N 51°20' E 001°25'0 0.0
2016-Aug-16 20:32N 51°20' E 001°25'0 0.0
2016-Aug-16 19:31N 51°20' E 001°25'0 0.0
2016-Aug-16 18:31N 51°20' E 001°25'0 0.0
2016-Aug-16 17:31N 51°20' E 001°25'0 0.0
2016-Aug-16 16:31N 51°20' E 001°25'0 0.0
2016-Aug-16 15:31N 51°20' E 001°25'0 0.0
2016-Aug-16 14:31N 51°20' E 001°25'0 0.0
2016-Aug-16 13:31N 51°20' E 001°25'0 0.0
2016-Aug-16 12:31N 51°20' E 001°25'0 0.0
2016-Aug-16 11:31N 51°20' E 001°25'0 0.0
2016-Aug-16 10:31N 51°20' E 001°25'0 0.0
2016-Aug-16 09:31N 51°20' E 001°25'0 0.0
2016-Aug-16 08:31N 51°20' E 001°25'0 0.0
2016-Aug-16 07:31N 51°20' E 001°25'0 0.0
2016-Aug-16 06:31N 51°20' E 001°25'  
Track history (hours):
 
Tides and Currents Weather Stations Pressure Air Temp Water Temp Dewpoint Dewpoint Depression Visibility Wind Speed Wind Dir Waves Ship Positions

MTS Valour

Last reported at 2016-Aug-26 04:34 UTC. Time now 2016-Aug-26 06:49 UTC.
Position N 51°20' E 001°25'.

Length 24 m; draft 2.4 m.

Type: Tug. MMSI: 235040596.

Date/timePositionNaut miles runAvg speedWind from/ knotsBaromVisibWave heightAir tempDewpointWater temp
2016-Aug-26 04:34N 51°20' E 001°25'0 0.0
2016-Aug-26 03:31N 51°20' E 001°25'0 0.0
2016-Aug-26 02:31N 51°20' E 001°25'0 0.0
2016-Aug-26 01:34N 51°20' E 001°25'0 0.0
2016-Aug-26 00:31N 51°20' E 001°25'0 0.0
2016-Aug-25 23:34N 51°20' E 001°25'0 0.0
2016-Aug-25 22:31N 51°20' E 001°25'0 0.0
2016-Aug-25 21:34N 51°20' E 001°25'0 0.0
2016-Aug-25 20:34N 51°20' E 001°25'0 0.0
2016-Aug-25 19:31N 51°20' E 001°25'0 0.0
2016-Aug-25 18:31N 51°20' E 001°25'0 0.0
2016-Aug-25 17:31N 51°20' E 001°25'0 0.0
2016-Aug-25 16:34N 51°20' E 001°25'0 0.0
2016-Aug-25 15:34N 51°20' E 001°25'0 0.0
2016-Aug-25 14:31N 51°20' E 001°25'0 0.0
2016-Aug-25 13:31N 51°20' E 001°25'0 0.0
2016-Aug-25 12:34N 51°20' E 001°25'0 0.0
2016-Aug-25 11:31N 51°20' E 001°25'0 0.0
2016-Aug-25 10:31N 51°20' E 001°25'0 0.0
2016-Aug-25 09:34N 51°20' E 001°25'0 0.0
2016-Aug-25 08:33N 51°20' E 001°25'0 0.0
2016-Aug-25 07:33N 51°20' E 001°25'0 0.0
2016-Aug-25 06:33N 51°20' E 001°25'14 7.2
2016-Aug-25 04:33N 51°12' E 001°45'1010.2
2016-Aug-25 03:33N 51°04' E 001°36'1110.3
2016-Aug-25 02:31N 50°55' E 001°26'10 9.0
2016-Aug-25 01:24N 50°46' E 001°21'11 8.4
2016-Aug-25 00:06N 50°38' E 001°10'37 7.8
2016-Aug-24 19:26N 50°25' E 000°16'7 7.5
2016-Aug-24 18:33N 50°23' E 000°06'8 7.8
2016-Aug-24 17:33N 50°24' W 000°06'9 9.4
2016-Aug-24 16:33N 50°30' W 000°17'10 9.7
2016-Aug-24 15:33N 50°37' W 000°29'9 9.3
2016-Aug-24 14:33N 50°42' W 000°41'4 3.8
2016-Aug-24 13:29N 50°44' W 000°47'0 0.0
2016-Aug-24 12:32N 50°44' W 000°47'0 0.1
2016-Aug-24 11:33N 50°44' W 000°47'0 0.1
2016-Aug-24 10:33N 50°44' W 000°47'0 0.0
2016-Aug-24 09:33N 50°44' W 000°47'0 0.0
2016-Aug-24 08:33N 50°44' W 000°47'0 0.0
2016-Aug-24 07:31N 50°44' W 000°47'0 0.0
2016-Aug-24 06:31N 50°44' W 000°47'0 0.0
2016-Aug-24 04:31N 50°44' W 000°47'0 0.0
2016-Aug-24 03:31N 50°44' W 000°47'0 0.0
2016-Aug-24 02:31N 50°44' W 000°47'0 0.0
2016-Aug-24 01:31N 50°44' W 000°47'0 0.0
2016-Aug-24 00:31N 50°44' W 000°47'0 0.0
2016-Aug-23 23:31N 50°44' W 000°47'0 0.0
2016-Aug-23 22:31N 50°44' W 000°47'0 0.0
2016-Aug-23 21:31N 50°44' W 000°47'0 0.0
2016-Aug-23 20:31N 50°44' W 000°47'0 0.0
2016-Aug-23 19:33N 50°44' W 000°47'0 0.0
2016-Aug-23 18:33N 50°44' W 000°47'0 0.0
2016-Aug-23 17:33N 50°44' W 000°47'0 0.0
2016-Aug-23 16:33N 50°44' W 000°47'0 0.0
2016-Aug-23 15:34N 50°44' W 000°47'0 0.0
2016-Aug-23 14:33N 50°44' W 000°47'0 0.0
2016-Aug-23 13:33N 50°44' W 000°47'0 0.1
2016-Aug-23 12:33N 50°44' W 000°47'0 0.1
2016-Aug-23 11:33N 50°44' W 000°47'0 0.1
2016-Aug-23 10:34N 50°44' W 000°47'0 0.1
2016-Aug-23 09:33N 50°44' W 000°47'0 0.0
2016-Aug-23 08:33N 50°44' W 000°47'0 0.0
2016-Aug-23 07:34N 50°44' W 000°47'0 0.0
2016-Aug-23 06:33N 50°44' W 000°47'0 0.0
2016-Aug-23 05:31N 50°44' W 000°47'0 0.0
2016-Aug-23 04:31N 50°44' W 000°47'0 0.0
2016-Aug-23 03:31N 50°44' W 000°47'0 0.0
2016-Aug-23 02:31N 50°44' W 000°47'0 0.0
2016-Aug-23 01:31N 50°44' W 000°47'0 0.0
2016-Aug-23 00:31N 50°44' W 000°47'0 0.0
2016-Aug-22 23:31N 50°44' W 000°47'0 0.0
2016-Aug-22 22:31N 50°44' W 000°47'0 0.0
2016-Aug-22 21:31N 50°44' W 000°47'0 0.0
2016-Aug-22 20:31N 50°44' W 000°47'0 0.0
2016-Aug-22 19:31N 50°44' W 000°47'0 0.0
2016-Aug-22 18:31N 50°44' W 000°47'0 0.0
2016-Aug-22 17:31N 50°44' W 000°47'0 0.0
2016-Aug-22 16:31N 50°44' W 000°47'0 0.0
2016-Aug-22 15:33N 50°44' W 000°47'0 0.0
2016-Aug-22 14:34N 50°44' W 000°47'0 0.0
2016-Aug-22 13:33N 50°44' W 000°47'0 0.0
2016-Aug-22 12:33N 50°44' W 000°47'0 0.0
2016-Aug-22 11:33N 50°44' W 000°47'0 0.1
2016-Aug-22 10:33N 50°44' W 000°47'1 0.6
2016-Aug-22 09:33N 50°44' W 000°46'0 0.4
2016-Aug-22 08:33N 50°43' W 000°46'0 0.3
2016-Aug-22 07:33N 50°44' W 000°46'6 5.9
2016-Aug-22 06:33N 50°42' W 000°37'8 8.4
2016-Aug-22 05:33N 50°38' W 000°25'9 8.9
2016-Aug-22 04:33N 50°34' W 000°12'9 8.7
2016-Aug-22 03:33N 50°32' E 000°01'8 8.1
2016-Aug-22 02:33N 50°34' E 000°13'47 6.7
2016-Aug-21 19:33N 51°01' E 001°15'9 8.7
2016-Aug-21 18:33N 51°07' E 001°24'8 8.4
2016-Aug-21 17:33N 51°15' E 001°27'4 4.4
2016-Aug-21 16:33N 51°20' E 001°25'0 0.0
2016-Aug-21 15:31N 51°20' E 001°25'0 0.0
2016-Aug-21 14:33N 51°20' E 001°25'0 0.0
2016-Aug-21 13:33N 51°20' E 001°25'0 0.0
2016-Aug-21 12:33N 51°20' E 001°25'0 0.0
2016-Aug-21 11:33N 51°20' E 001°25'0 0.0
2016-Aug-21 10:33N 51°20' E 001°25'0 0.0
2016-Aug-21 09:33N 51°20' E 001°25'0 0.0
2016-Aug-21 08:33N 51°20' E 001°25'0 0.0
2016-Aug-21 07:33N 51°20' E 001°25'0 0.0
2016-Aug-21 06:33N 51°20' E 001°25'0 0.0
2016-Aug-21 05:33N 51°20' E 001°25'0 0.0
2016-Aug-21 04:33N 51°20' E 001°25'0 0.0
2016-Aug-21 03:34N 51°20' E 001°25'0 0.0
2016-Aug-21 02:33N 51°20' E 001°25'0 0.0
2016-Aug-21 01:34N 51°20' E 001°25'0 0.0
2016-Aug-21 00:33N 51°20' E 001°25'0 0.0
2016-Aug-20 23:33N 51°20' E 001°25'0 0.0
2016-Aug-20 22:33N 51°20' E 001°25'0 0.0
2016-Aug-20 21:33N 51°20' E 001°25'0 0.0
2016-Aug-20 20:33N 51°20' E 001°25'0 0.0
2016-Aug-20 19:33N 51°20' E 001°25'0 0.0
2016-Aug-20 18:33N 51°20' E 001°25'0 0.0
2016-Aug-20 17:33N 51°20' E 001°25'0 0.0
2016-Aug-20 16:33N 51°20' E 001°25'0 0.0
2016-Aug-20 15:33N 51°20' E 001°25'0 0.0
2016-Aug-20 14:33N 51°20' E 001°25'0 0.0
2016-Aug-20 13:33N 51°20' E 001°25'0 0.0
2016-Aug-20 12:33N 51°20' E 001°25'0 0.0
2016-Aug-20 11:33N 51°20' E 001°25'0 0.0
2016-Aug-20 10:34N 51°20' E 001°25'0 0.0
2016-Aug-20 09:33N 51°20' E 001°25'0 0.0
2016-Aug-20 08:33N 51°20' E 001°25'0 0.0
2016-Aug-20 07:34N 51°20' E 001°25'0 0.0
2016-Aug-20 06:33N 51°20' E 001°25'0 0.0
2016-Aug-20 05:33N 51°20' E 001°25'0 0.0
2016-Aug-20 04:33N 51°20' E 001°25'0 0.0
2016-Aug-20 03:33N 51°20' E 001°25'0 0.0
2016-Aug-20 02:33N 51°20' E 001°25'0 0.0
2016-Aug-20 01:33N 51°20' E 001°25'0 0.0
2016-Aug-20 00:33N 51°20' E 001°25'0 0.0
2016-Aug-19 23:33N 51°20' E 001°25'0 0.0
2016-Aug-19 22:33N 51°20' E 001°25'0 0.3
2016-Aug-19 21:34N 51°20' E 001°25'1 0.6
2016-Aug-19 20:33N 51°20' E 001°26'1 0.7
2016-Aug-19 19:33N 51°20' E 001°25'0 0.0
2016-Aug-19 18:33N 51°20' E 001°25'0 0.0
2016-Aug-19 17:33N 51°20' E 001°25'0 0.0
2016-Aug-19 16:33N 51°20' E 001°25'0 0.0
2016-Aug-19 15:33N 51°20' E 001°25'0 0.4
2016-Aug-19 14:31N 51°20' E 001°25'0 0.0
2016-Aug-19 13:31N 51°20' E 001°25'0 0.0
2016-Aug-19 12:31N 51°20' E 001°25'0 0.0
2016-Aug-19 11:31N 51°20' E 001°25'0 0.0
2016-Aug-19 10:31N 51°20' E 001°25'0 0.0
2016-Aug-19 09:31N 51°20' E 001°25'0 0.0
2016-Aug-19 08:31N 51°20' E 001°25'0 0.0
2016-Aug-19 07:31N 51°20' E 001°25'0 0.0
2016-Aug-19 06:31N 51°20' E 001°25'0 0.0
2016-Aug-19 05:31N 51°20' E 001°25'0 0.0
2016-Aug-19 04:31N 51°20' E 001°25'0 0.0
2016-Aug-19 03:31N 51°20' E 001°25'0 0.0
2016-Aug-19 02:31N 51°20' E 001°25'0 0.0
2016-Aug-19 01:31N 51°20' E 001°25'0 0.0
2016-Aug-19 00:31N 51°20' E 001°25'0 0.0
2016-Aug-18 23:31N 51°20' E 001°25'0 0.0
2016-Aug-18 22:31N 51°20' E 001°25'0 0.0
2016-Aug-18 21:31N 51°20' E 001°25'0 0.0
2016-Aug-18 20:31N 51°20' E 001°25'0 0.0
2016-Aug-18 19:31N 51°20' E 001°25'0 0.0
2016-Aug-18 18:31N 51°20' E 001°25'0 0.0
2016-Aug-18 17:31N 51°20' E 001°25'0 0.0
2016-Aug-18 16:31N 51°20' E 001°25'0 0.0
2016-Aug-18 15:31N 51°20' E 001°25'0 0.0
2016-Aug-18 14:31N 51°20' E 001°25'0 0.0
2016-Aug-18 13:31N 51°20' E 001°25'0 0.0
2016-Aug-18 12:31N 51°20' E 001°25'0 0.0
2016-Aug-18 11:28N 51°20' E 001°25'0 0.0
2016-Aug-18 10:31N 51°20' E 001°25'0 0.0
2016-Aug-18 09:31N 51°20' E 001°25'0 0.0
2016-Aug-18 08:28N 51°20' E 001°25'0 0.0
2016-Aug-18 07:31N 51°20' E 001°25'0 0.0
2016-Aug-18 06:31N 51°20' E 001°25'0 0.0
2016-Aug-18 05:31N 51°20' E 001°25'0 0.0
2016-Aug-18 04:31N 51°20' E 001°25'0 0.0
2016-Aug-18 03:31N 51°20' E 001°25'0 0.0
2016-Aug-18 02:31N 51°20' E 001°25'0 0.0
2016-Aug-18 01:31N 51°20' E 001°25'0 0.0
2016-Aug-18 00:31N 51°20' E 001°25'0 0.0
2016-Aug-17 23:31N 51°20' E 001°25'0 0.0
2016-Aug-17 22:31N 51°20' E 001°25'0 0.0
2016-Aug-17 21:31N 51°20' E 001°25'0 0.0
2016-Aug-17 20:31N 51°20' E 001°25'0 0.0
2016-Aug-17 19:31N 51°20' E 001°25'0 0.0
2016-Aug-17 18:31N 51°20' E 001°25'0 0.0
2016-Aug-17 17:31N 51°20' E 001°25'0 0.0
2016-Aug-17 16:31N 51°20' E 001°25'0 0.0
2016-Aug-17 15:31N 51°20' E 001°25'0 0.0
2016-Aug-17 14:31N 51°20' E 001°25'0 0.0
2016-Aug-17 13:31N 51°20' E 001°25'0 0.0
2016-Aug-17 12:31N 51°20' E 001°25'0 0.0
2016-Aug-17 11:31N 51°20' E 001°25'0 0.0
2016-Aug-17 10:31N 51°20' E 001°25'0 0.0
2016-Aug-17 09:31N 51°20' E 001°25'0 0.0
2016-Aug-17 08:31N 51°20' E 001°25'0 0.0
2016-Aug-17 07:31N 51°20' E 001°25'0 0.0
2016-Aug-17 06:31N 51°20' E 001°25'0 0.0
2016-Aug-17 05:31N 51°20' E 001°25'0 0.0
2016-Aug-17 04:31N 51°20' E 001°25'0 0.0
2016-Aug-17 03:31N 51°20' E 001°25'0 0.0
2016-Aug-17 02:31N 51°20' E 001°25'0 0.0
2016-Aug-17 01:31N 51°20' E 001°25'0 0.0
2016-Aug-17 00:31N 51°20' E 001°25'0 0.0
2016-Aug-16 23:31N 51°20' E 001°25'0 0.0
2016-Aug-16 22:31N 51°20' E 001°25'0 0.0
2016-Aug-16 21:31N 51°20' E 001°25'0 0.0
2016-Aug-16 20:32N 51°20' E 001°25'0 0.0
2016-Aug-16 19:31N 51°20' E 001°25'0 0.0
2016-Aug-16 18:31N 51°20' E 001°25'0 0.0
2016-Aug-16 17:31N 51°20' E 001°25'0 0.0
2016-Aug-16 16:31N 51°20' E 001°25'0 0.0
2016-Aug-16 15:31N 51°20' E 001°25'0 0.0
2016-Aug-16 14:31N 51°20' E 001°25'0 0.0
2016-Aug-16 13:31N 51°20' E 001°25'0 0.0
2016-Aug-16 12:31N 51°20' E 001°25'0 0.0
2016-Aug-16 11:31N 51°20' E 001°25'0 0.0
2016-Aug-16 10:31N 51°20' E 001°25'0 0.0
2016-Aug-16 09:31N 51°20' E 001°25'0 0.0
2016-Aug-16 08:31N 51°20' E 001°25'0 0.0
2016-Aug-16 07:31N 51°20' E 001°25'0 0.0
2016-Aug-16 06:31N 51°20' E 001°25'  

Dump ship's entire track history